Astreana — 3ENP2 — position and weather

sailwx.info

Track history (hours):
 
Tides and Currents Weather Stations Pressure Air Temp Water Temp Dewpoint Dewpoint Depression Visibility Wind Speed Wind Dir Waves Ship Positions

Astreana

Last reported at 2018-Apr-20 15:33 UTC. Time now 2018-Apr-21 17:01 UTC.
Position N 31°01' E 122°26'.

Length 97 m; draft 4.9 m.

Type: Tanker. MMSI: 374548000.

Date/timePositionNaut miles runAvg speedWind from/ knotsBaromVisibWave heightAir tempDewpointWater temp
2018-Apr-20 15:33N 31°01' E 122°26'0 9.5
2018-Apr-20 15:30N 31°01' E 122°25'510.4
2018-Apr-20 15:00N 31°02' E 122°19'4 8.2
2018-Apr-20 14:28N 31°02' E 122°14'4 7.8
2018-Apr-20 14:00N 31°03' E 122°10'612.0
2018-Apr-20 13:30N 31°04' E 122°03'612.8
2018-Apr-20 13:00N 31°07' E 121°56'814.5
2018-Apr-20 12:27N 31°12' E 121°49'2311.9
2018-Apr-20 10:31N 31°27' E 121°28'110.2
2018-Apr-20 10:23N 31°28' E 121°28'512.3
2018-Apr-20 10:00N 31°31' E 121°23'612.9
2018-Apr-20 09:30N 31°35' E 121°18'713.4
2018-Apr-20 09:00N 31°40' E 121°12'612.6
2018-Apr-20 08:30N 31°44' E 121°06'3211.0
2018-Apr-20 05:38N 32°00' E 120°35'213.4
2018-Apr-20 05:29N 32°01' E 120°32'713.7
2018-Apr-20 05:00N 32°01' E 120°24'3 0.2
2018-Apr-19 11:46N 31°58' E 120°23'1 3.4
2018-Apr-19 11:28N 31°58' E 120°24'3 5.7
2018-Apr-19 11:00N 31°59' E 120°27'3 6.1
2018-Apr-19 10:31N 32°02' E 120°29'3211.2
2018-Apr-19 07:37N 31°46' E 121°02'214.1
2018-Apr-19 07:29N 31°46' E 121°04'714.5
2018-Apr-19 07:00N 31°41' E 121°10'714.8
2018-Apr-19 06:30N 31°36' E 121°17'613.1
2018-Apr-19 06:00N 31°32' E 121°22'611.4
2018-Apr-19 05:30N 31°28' E 121°28'2810.5
2018-Apr-19 02:48N 31°10' E 121°53'512.4
2018-Apr-19 02:24N 31°07' E 121°57'511.6
2018-Apr-19 02:00N 31°05' E 122°02'713.1
2018-Apr-19 01:30N 31°03' E 122°10'611.2
2018-Apr-19 01:01N 31°03' E 122°16'915.6
2018-Apr-19 00:27N 31°01' E 122°26'38 2.2
2018-Apr-18 06:43N 30°57' E 123°10'611.3
2018-Apr-18 06:08N 30°56' E 123°18'211.0
2018-Apr-18 05:59N 30°56' E 123°20'511.3
2018-Apr-18 05:30N 30°55' E 123°26'4812.1
2018-Apr-18 01:30N 30°55' E 124°22'813.5
2018-Apr-18 00:57N 30°54' E 124°31'  
2018-Apr-15 16:59N 33°46' E 136°21'2612.0
2018-Apr-15 14:48N 34°04' E 136°43'411.5
2018-Apr-15 14:25N 34°08' E 136°47'2111.2
2018-Apr-15 12:30N 34°26' E 137°01'1310.3
2018-Apr-15 11:13N 34°36' E 136°51'2 9.7
2018-Apr-15 10:58N 34°36' E 136°48'0 0.1
2018-Apr-15 08:08N 34°36' E 136°48'0 0.0
2018-Apr-15 07:56N 34°36' E 136°48'0 0.0
2018-Apr-15 05:38N 34°36' E 136°48'0 0.0
2018-Apr-15 05:14N 34°36' E 136°48'0 0.0
2018-Apr-15 04:56N 34°36' E 136°48'0 0.0
2018-Apr-15 04:14N 34°36' E 136°48'0 0.0
2018-Apr-15 02:32N 34°36' E 136°48'0 0.0
2018-Apr-15 02:02N 34°36' E 136°48'0 0.0
2018-Apr-15 01:44N 34°36' E 136°48'0 0.0
2018-Apr-15 01:08N 34°36' E 136°48'0 0.1
2018-Apr-15 00:38N 34°36' E 136°48'0 0.0
2018-Apr-15 00:14N 34°36' E 136°48'0 0.2
2018-Apr-14 23:56N 34°36' E 136°48'3 5.3
2018-Apr-14 23:28N 34°36' E 136°51'511.0
2018-Apr-14 22:59N 34°36' E 136°57'64 8.6
2018-Apr-14 15:36N 34°30' E 138°14'111.5
2018-Apr-14 15:29N 34°30' E 138°16'811.8
2018-Apr-14 14:49N 34°31' E 138°25'411.6
2018-Apr-14 14:29N 34°31' E 138°30'611.8
2018-Apr-14 14:00N 34°32' E 138°36'611.0
2018-Apr-14 13:26N 34°32' E 138°44'611.0
2018-Apr-14 12:55N 34°32' E 138°51'510.6
2018-Apr-14 12:29N 34°32' E 138°57'5 9.9
2018-Apr-14 11:59N 34°35' E 139°01'611.5
2018-Apr-14 11:30N 34°41' E 139°04'612.2
2018-Apr-14 10:58N 34°46' E 139°08'612.1
2018-Apr-14 10:27N 34°51' E 139°12'511.4
2018-Apr-14 10:01N 34°54' E 139°18'710.6
2018-Apr-14 09:23N 34°57' E 139°24'410.1
2018-Apr-14 09:01N 34°59' E 139°28'610.7
2018-Apr-14 08:29N 35°02' E 139°34'510.7
2018-Apr-14 08:00N 35°05' E 139°39'611.5
2018-Apr-14 07:30N 35°09' E 139°45'611.8
2018-Apr-14 07:00N 35°15' E 139°46'510.0
2018-Apr-14 06:30N 35°19' E 139°43'4 8.9
2018-Apr-14 06:00N 35°23' E 139°41'3 5.2
2018-Apr-14 05:29N 35°25' E 139°38'0 0.0
2018-Apr-14 04:59N 35°25' E 139°38'0 0.0
2018-Apr-14 04:29N 35°25' E 139°38'0 0.0
2018-Apr-14 03:56N 35°25' E 139°38'0 0.0
2018-Apr-14 03:29N 35°25' E 139°38'0 0.0
2018-Apr-14 02:59N 35°25' E 139°38'0 0.0
2018-Apr-14 02:29N 35°25' E 139°38'0 0.0
2018-Apr-14 01:59N 35°25' E 139°38'0 0.6
2018-Apr-14 01:30N 35°24' E 139°39'3 5.3
2018-Apr-14 01:00N 35°22' E 139°41'0 0.4
2018-Apr-14 00:28N 35°22' E 139°41'0 0.0
2018-Apr-13 23:58N 35°22' E 139°41'0 0.0
2018-Apr-13 23:28N 35°22' E 139°41'0 0.0
2018-Apr-13 22:58N 35°22' E 139°41'0 0.0
2018-Apr-13 22:28N 35°22' E 139°41'0 0.0
2018-Apr-13 21:58N 35°22' E 139°41'0 0.0
2018-Apr-13 21:28N 35°22' E 139°41'0 0.0
2018-Apr-13 20:55N 35°22' E 139°41'0 0.0
2018-Apr-13 20:28N 35°22' E 139°41'0 0.0
2018-Apr-13 19:58N 35°22' E 139°41'0 0.0
2018-Apr-13 19:28N 35°22' E 139°41'0 0.0
2018-Apr-13 18:55N 35°22' E 139°41'0 0.0
2018-Apr-13 18:28N 35°22' E 139°41'0 0.1
2018-Apr-13 17:58N 35°22' E 139°41'0 0.1
2018-Apr-13 17:28N 35°22' E 139°41'0 0.0
2018-Apr-13 16:58N 35°22' E 139°41'0 0.0
2018-Apr-13 16:28N 35°22' E 139°41'0 0.0
2018-Apr-13 15:58N 35°22' E 139°41'0 0.0
2018-Apr-13 15:28N 35°22' E 139°41'0 0.0
2018-Apr-13 14:58N 35°22' E 139°41'0 0.0
2018-Apr-13 14:28N 35°22' E 139°41'0 0.1
2018-Apr-13 13:58N 35°22' E 139°41'0 0.0
2018-Apr-13 13:28N 35°22' E 139°41'0 0.0
2018-Apr-13 12:58N 35°22' E 139°41'0 0.0
2018-Apr-13 12:28N 35°22' E 139°41'0 0.0
2018-Apr-13 11:58N 35°22' E 139°41'0 0.0
2018-Apr-13 11:28N 35°22' E 139°41'0 0.0
2018-Apr-13 10:58N 35°22' E 139°41'0 0.1
2018-Apr-13 10:28N 35°22' E 139°41'0 0.0
2018-Apr-13 09:55N 35°22' E 139°41'0 0.0
2018-Apr-13 09:28N 35°22' E 139°41'0 0.0
2018-Apr-13 08:58N 35°22' E 139°41'0 0.0
2018-Apr-13 08:28N 35°22' E 139°41'0 0.0
2018-Apr-13 07:58N 35°22' E 139°41'0 0.0
2018-Apr-13 07:28N 35°22' E 139°41'0 0.0
2018-Apr-13 06:58N 35°22' E 139°41'0 0.1
2018-Apr-13 06:28N 35°22' E 139°41'0 0.0
2018-Apr-13 05:58N 35°22' E 139°41'0 0.0
2018-Apr-13 05:28N 35°22' E 139°41'0 0.0
2018-Apr-13 04:58N 35°22' E 139°41'0 0.0
2018-Apr-13 04:25N 35°22' E 139°41'0 0.1
2018-Apr-13 03:58N 35°22' E 139°41'0 0.0
2018-Apr-13 03:28N 35°22' E 139°41'0 0.0
2018-Apr-13 02:58N 35°22' E 139°41'0 0.0
2018-Apr-13 02:28N 35°22' E 139°41'0 0.1
2018-Apr-13 01:58N 35°22' E 139°41'0 0.0
2018-Apr-13 01:28N 35°22' E 139°41'0 0.1
2018-Apr-13 00:58N 35°22' E 139°41'0 0.0
2018-Apr-13 00:28N 35°22' E 139°41'0 0.1
2018-Apr-12 23:58N 35°22' E 139°41'0 0.0
2018-Apr-12 23:28N 35°22' E 139°41'0 0.1
2018-Apr-12 22:58N 35°22' E 139°41'0 0.0
2018-Apr-12 22:28N 35°22' E 139°41'0 0.0
2018-Apr-12 21:58N 35°22' E 139°41'0 0.0
2018-Apr-12 21:28N 35°22' E 139°41'0 0.0
2018-Apr-12 20:58N 35°22' E 139°41'0 0.0
2018-Apr-12 20:28N 35°22' E 139°41'0 0.0
2018-Apr-12 19:58N 35°22' E 139°41'1 2.6
2018-Apr-12 19:30N 35°21' E 139°42'611.4
2018-Apr-12 19:01N 35°17' E 139°46'611.9
2018-Apr-12 18:30N 35°11' E 139°46'612.5
2018-Apr-12 18:00N 35°05' E 139°45'612.3
2018-Apr-12 17:30N 34°59' E 139°43'611.3
2018-Apr-12 17:00N 34°53' E 139°44'610.8
2018-Apr-12 16:29N 34°51' E 139°51'710.8
2018-Apr-12 15:52N 34°52' E 139°58'410.3
2018-Apr-12 15:30N 34°53' E 140°03'511.0
2018-Apr-12 15:00N 34°56' E 140°08'611.7
2018-Apr-12 14:29N 34°59' E 140°15'711.7
2018-Apr-12 13:54N 35°03' E 140°22'1310.9
2018-Apr-12 12:42N 35°09' E 140°36'24 0.7
2018-Apr-11 02:07N 34°55' E 140°13'214.6
2018-Apr-11 01:59N 34°53' E 140°11'1714.8
2018-Apr-11 00:48N 34°45' E 139°52'513.4
2018-Apr-11 00:25N 34°43' E 139°46'613.1
2018-Apr-10 23:57N 34°41' E 139°39'714.8
2018-Apr-10 23:30N 34°39' E 139°32'1114.6
2018-Apr-10 22:45N 34°36' E 139°19'414.8
2018-Apr-10 22:30N 34°35' E 139°15'2 3.1
2018-Apr-10 22:00N 34°34' E 139°13'5 9.4
2018-Apr-10 21:30N 34°35' E 139°19'1 2.0
2018-Apr-10 21:00N 34°35' E 139°18'714.1
2018-Apr-10 20:30N 34°33' E 139°09'714.3
2018-Apr-10 20:00N 34°31' E 139°01'714.0
2018-Apr-10 19:29N 34°31' E 138°52'713.9
2018-Apr-10 19:00N 34°30' E 138°44'713.4
2018-Apr-10 18:30N 34°30' E 138°36'713.1
2018-Apr-10 17:58N 34°29' E 138°27'811.9
2018-Apr-10 17:20N 34°28' E 138°18'412.2
2018-Apr-10 16:59N 34°28' E 138°13'  
Track history (hours):
 
Tides and Currents Weather Stations Pressure Air Temp Water Temp Dewpoint Dewpoint Depression Visibility Wind Speed Wind Dir Waves Ship Positions

Astreana

Last reported at 2018-Apr-20 15:33 UTC. Time now 2018-Apr-21 17:01 UTC.
Position N 31°01' E 122°26'.

Length 97 m; draft 4.9 m.

Type: Tanker. MMSI: 374548000.

Date/timePositionNaut miles runAvg speedWind from/ knotsBaromVisibWave heightAir tempDewpointWater temp
2018-Apr-20 15:33N 31°01' E 122°26'0 9.5
2018-Apr-20 15:30N 31°01' E 122°25'510.4
2018-Apr-20 15:00N 31°02' E 122°19'4 8.2
2018-Apr-20 14:28N 31°02' E 122°14'4 7.8
2018-Apr-20 14:00N 31°03' E 122°10'612.0
2018-Apr-20 13:30N 31°04' E 122°03'612.8
2018-Apr-20 13:00N 31°07' E 121°56'814.5
2018-Apr-20 12:27N 31°12' E 121°49'2311.9
2018-Apr-20 10:31N 31°27' E 121°28'110.2
2018-Apr-20 10:23N 31°28' E 121°28'512.3
2018-Apr-20 10:00N 31°31' E 121°23'612.9
2018-Apr-20 09:30N 31°35' E 121°18'713.4
2018-Apr-20 09:00N 31°40' E 121°12'612.6
2018-Apr-20 08:30N 31°44' E 121°06'3211.0
2018-Apr-20 05:38N 32°00' E 120°35'213.4
2018-Apr-20 05:29N 32°01' E 120°32'713.7
2018-Apr-20 05:00N 32°01' E 120°24'3 0.2
2018-Apr-19 11:46N 31°58' E 120°23'1 3.4
2018-Apr-19 11:28N 31°58' E 120°24'3 5.7
2018-Apr-19 11:00N 31°59' E 120°27'3 6.1
2018-Apr-19 10:31N 32°02' E 120°29'3211.2
2018-Apr-19 07:37N 31°46' E 121°02'214.1
2018-Apr-19 07:29N 31°46' E 121°04'714.5
2018-Apr-19 07:00N 31°41' E 121°10'714.8
2018-Apr-19 06:30N 31°36' E 121°17'613.1
2018-Apr-19 06:00N 31°32' E 121°22'611.4
2018-Apr-19 05:30N 31°28' E 121°28'2810.5
2018-Apr-19 02:48N 31°10' E 121°53'512.4
2018-Apr-19 02:24N 31°07' E 121°57'511.6
2018-Apr-19 02:00N 31°05' E 122°02'713.1
2018-Apr-19 01:30N 31°03' E 122°10'611.2
2018-Apr-19 01:01N 31°03' E 122°16'915.6
2018-Apr-19 00:27N 31°01' E 122°26'38 2.2
2018-Apr-18 06:43N 30°57' E 123°10'611.3
2018-Apr-18 06:08N 30°56' E 123°18'211.0
2018-Apr-18 05:59N 30°56' E 123°20'511.3
2018-Apr-18 05:30N 30°55' E 123°26'4812.1
2018-Apr-18 01:30N 30°55' E 124°22'813.5
2018-Apr-18 00:57N 30°54' E 124°31'  
2018-Apr-15 16:59N 33°46' E 136°21'2612.0
2018-Apr-15 14:48N 34°04' E 136°43'411.5
2018-Apr-15 14:25N 34°08' E 136°47'2111.2
2018-Apr-15 12:30N 34°26' E 137°01'1310.3
2018-Apr-15 11:13N 34°36' E 136°51'2 9.7
2018-Apr-15 10:58N 34°36' E 136°48'0 0.1
2018-Apr-15 08:08N 34°36' E 136°48'0 0.0
2018-Apr-15 07:56N 34°36' E 136°48'0 0.0
2018-Apr-15 05:38N 34°36' E 136°48'0 0.0
2018-Apr-15 05:14N 34°36' E 136°48'0 0.0
2018-Apr-15 04:56N 34°36' E 136°48'0 0.0
2018-Apr-15 04:14N 34°36' E 136°48'0 0.0
2018-Apr-15 02:32N 34°36' E 136°48'0 0.0
2018-Apr-15 02:02N 34°36' E 136°48'0 0.0
2018-Apr-15 01:44N 34°36' E 136°48'0 0.0
2018-Apr-15 01:08N 34°36' E 136°48'0 0.1
2018-Apr-15 00:38N 34°36' E 136°48'0 0.0
2018-Apr-15 00:14N 34°36' E 136°48'0 0.2
2018-Apr-14 23:56N 34°36' E 136°48'3 5.3
2018-Apr-14 23:28N 34°36' E 136°51'511.0
2018-Apr-14 22:59N 34°36' E 136°57'64 8.6
2018-Apr-14 15:36N 34°30' E 138°14'111.5
2018-Apr-14 15:29N 34°30' E 138°16'811.8
2018-Apr-14 14:49N 34°31' E 138°25'411.6
2018-Apr-14 14:29N 34°31' E 138°30'611.8
2018-Apr-14 14:00N 34°32' E 138°36'611.0
2018-Apr-14 13:26N 34°32' E 138°44'611.0
2018-Apr-14 12:55N 34°32' E 138°51'510.6
2018-Apr-14 12:29N 34°32' E 138°57'5 9.9
2018-Apr-14 11:59N 34°35' E 139°01'611.5
2018-Apr-14 11:30N 34°41' E 139°04'612.2
2018-Apr-14 10:58N 34°46' E 139°08'612.1
2018-Apr-14 10:27N 34°51' E 139°12'511.4
2018-Apr-14 10:01N 34°54' E 139°18'710.6
2018-Apr-14 09:23N 34°57' E 139°24'410.1
2018-Apr-14 09:01N 34°59' E 139°28'610.7
2018-Apr-14 08:29N 35°02' E 139°34'510.7
2018-Apr-14 08:00N 35°05' E 139°39'611.5
2018-Apr-14 07:30N 35°09' E 139°45'611.8
2018-Apr-14 07:00N 35°15' E 139°46'510.0
2018-Apr-14 06:30N 35°19' E 139°43'4 8.9
2018-Apr-14 06:00N 35°23' E 139°41'3 5.2
2018-Apr-14 05:29N 35°25' E 139°38'0 0.0
2018-Apr-14 04:59N 35°25' E 139°38'0 0.0
2018-Apr-14 04:29N 35°25' E 139°38'0 0.0
2018-Apr-14 03:56N 35°25' E 139°38'0 0.0
2018-Apr-14 03:29N 35°25' E 139°38'0 0.0
2018-Apr-14 02:59N 35°25' E 139°38'0 0.0
2018-Apr-14 02:29N 35°25' E 139°38'0 0.0
2018-Apr-14 01:59N 35°25' E 139°38'0 0.6
2018-Apr-14 01:30N 35°24' E 139°39'3 5.3
2018-Apr-14 01:00N 35°22' E 139°41'0 0.4
2018-Apr-14 00:28N 35°22' E 139°41'0 0.0
2018-Apr-13 23:58N 35°22' E 139°41'0 0.0
2018-Apr-13 23:28N 35°22' E 139°41'0 0.0
2018-Apr-13 22:58N 35°22' E 139°41'0 0.0
2018-Apr-13 22:28N 35°22' E 139°41'0 0.0
2018-Apr-13 21:58N 35°22' E 139°41'0 0.0
2018-Apr-13 21:28N 35°22' E 139°41'0 0.0
2018-Apr-13 20:55N 35°22' E 139°41'0 0.0
2018-Apr-13 20:28N 35°22' E 139°41'0 0.0
2018-Apr-13 19:58N 35°22' E 139°41'0 0.0
2018-Apr-13 19:28N 35°22' E 139°41'0 0.0
2018-Apr-13 18:55N 35°22' E 139°41'0 0.0
2018-Apr-13 18:28N 35°22' E 139°41'0 0.1
2018-Apr-13 17:58N 35°22' E 139°41'0 0.1
2018-Apr-13 17:28N 35°22' E 139°41'0 0.0
2018-Apr-13 16:58N 35°22' E 139°41'0 0.0
2018-Apr-13 16:28N 35°22' E 139°41'0 0.0
2018-Apr-13 15:58N 35°22' E 139°41'0 0.0
2018-Apr-13 15:28N 35°22' E 139°41'0 0.0
2018-Apr-13 14:58N 35°22' E 139°41'0 0.0
2018-Apr-13 14:28N 35°22' E 139°41'0 0.1
2018-Apr-13 13:58N 35°22' E 139°41'0 0.0
2018-Apr-13 13:28N 35°22' E 139°41'0 0.0
2018-Apr-13 12:58N 35°22' E 139°41'0 0.0
2018-Apr-13 12:28N 35°22' E 139°41'0 0.0
2018-Apr-13 11:58N 35°22' E 139°41'0 0.0
2018-Apr-13 11:28N 35°22' E 139°41'0 0.0
2018-Apr-13 10:58N 35°22' E 139°41'0 0.1
2018-Apr-13 10:28N 35°22' E 139°41'0 0.0
2018-Apr-13 09:55N 35°22' E 139°41'0 0.0
2018-Apr-13 09:28N 35°22' E 139°41'0 0.0
2018-Apr-13 08:58N 35°22' E 139°41'0 0.0
2018-Apr-13 08:28N 35°22' E 139°41'0 0.0
2018-Apr-13 07:58N 35°22' E 139°41'0 0.0
2018-Apr-13 07:28N 35°22' E 139°41'0 0.0
2018-Apr-13 06:58N 35°22' E 139°41'0 0.1
2018-Apr-13 06:28N 35°22' E 139°41'0 0.0
2018-Apr-13 05:58N 35°22' E 139°41'0 0.0
2018-Apr-13 05:28N 35°22' E 139°41'0 0.0
2018-Apr-13 04:58N 35°22' E 139°41'0 0.0
2018-Apr-13 04:25N 35°22' E 139°41'0 0.1
2018-Apr-13 03:58N 35°22' E 139°41'0 0.0
2018-Apr-13 03:28N 35°22' E 139°41'0 0.0
2018-Apr-13 02:58N 35°22' E 139°41'0 0.0
2018-Apr-13 02:28N 35°22' E 139°41'0 0.1
2018-Apr-13 01:58N 35°22' E 139°41'0 0.0
2018-Apr-13 01:28N 35°22' E 139°41'0 0.1
2018-Apr-13 00:58N 35°22' E 139°41'0 0.0
2018-Apr-13 00:28N 35°22' E 139°41'0 0.1
2018-Apr-12 23:58N 35°22' E 139°41'0 0.0
2018-Apr-12 23:28N 35°22' E 139°41'0 0.1
2018-Apr-12 22:58N 35°22' E 139°41'0 0.0
2018-Apr-12 22:28N 35°22' E 139°41'0 0.0
2018-Apr-12 21:58N 35°22' E 139°41'0 0.0
2018-Apr-12 21:28N 35°22' E 139°41'0 0.0
2018-Apr-12 20:58N 35°22' E 139°41'0 0.0
2018-Apr-12 20:28N 35°22' E 139°41'0 0.0
2018-Apr-12 19:58N 35°22' E 139°41'1 2.6
2018-Apr-12 19:30N 35°21' E 139°42'611.4
2018-Apr-12 19:01N 35°17' E 139°46'611.9
2018-Apr-12 18:30N 35°11' E 139°46'612.5
2018-Apr-12 18:00N 35°05' E 139°45'612.3
2018-Apr-12 17:30N 34°59' E 139°43'611.3
2018-Apr-12 17:00N 34°53' E 139°44'610.8
2018-Apr-12 16:29N 34°51' E 139°51'710.8
2018-Apr-12 15:52N 34°52' E 139°58'410.3
2018-Apr-12 15:30N 34°53' E 140°03'511.0
2018-Apr-12 15:00N 34°56' E 140°08'611.7
2018-Apr-12 14:29N 34°59' E 140°15'711.7
2018-Apr-12 13:54N 35°03' E 140°22'1310.9
2018-Apr-12 12:42N 35°09' E 140°36'24 0.7
2018-Apr-11 02:07N 34°55' E 140°13'214.6
2018-Apr-11 01:59N 34°53' E 140°11'1714.8
2018-Apr-11 00:48N 34°45' E 139°52'513.4
2018-Apr-11 00:25N 34°43' E 139°46'613.1
2018-Apr-10 23:57N 34°41' E 139°39'714.8
2018-Apr-10 23:30N 34°39' E 139°32'1114.6
2018-Apr-10 22:45N 34°36' E 139°19'414.8
2018-Apr-10 22:30N 34°35' E 139°15'2 3.1
2018-Apr-10 22:00N 34°34' E 139°13'5 9.4
2018-Apr-10 21:30N 34°35' E 139°19'1 2.0
2018-Apr-10 21:00N 34°35' E 139°18'714.1
2018-Apr-10 20:30N 34°33' E 139°09'714.3
2018-Apr-10 20:00N 34°31' E 139°01'714.0
2018-Apr-10 19:29N 34°31' E 138°52'713.9
2018-Apr-10 19:00N 34°30' E 138°44'713.4
2018-Apr-10 18:30N 34°30' E 138°36'713.1
2018-Apr-10 17:58N 34°29' E 138°27'811.9
2018-Apr-10 17:20N 34°28' E 138°18'412.2
2018-Apr-10 16:59N 34°28' E 138°13'  

Dump ship's entire track history